sensor_id;sensor_type;location;lat;lon;timestamp;pressure;altitude;pressure_sealevel;temperature;humidity
59043;BME280;44826;51.596;5.624;2023-08-06T00:02:05;100274.47;;;15.29;93.81
59043;BME280;44826;51.596;5.624;2023-08-06T00:04:30;100284.13;;;15.28;93.86
59043;BME280;44826;51.596;5.624;2023-08-06T00:06:56;100285.06;;;15.27;93.65
59043;BME280;44826;51.596;5.624;2023-08-06T00:09:21;100285.97;;;15.26;93.46
59043;BME280;44826;51.596;5.624;2023-08-06T00:11:46;100279.97;;;15.24;93.79
59043;BME280;44826;51.596;5.624;2023-08-06T00:14:12;100279.16;;;15.24;93.88
59043;BME280;44826;51.596;5.624;2023-08-06T00:16:42;100276.59;;;15.22;94.17
59043;BME280;44826;51.596;5.624;2023-08-06T00:19:07;100280.13;;;15.21;94.23
59043;BME280;44826;51.596;5.624;2023-08-06T00:21:32;100276.78;;;15.19;94.42
59043;BME280;44826;51.596;5.624;2023-08-06T00:23:58;100276.84;;;15.17;94.58
59043;BME280;44826;51.596;5.624;2023-08-06T00:26:23;100273.38;;;15.17;94.94
59043;BME280;44826;51.596;5.624;2023-08-06T00:28:49;100271.69;;;15.16;94.76
59043;BME280;44826;51.596;5.624;2023-08-06T00:31:14;100270.00;;;15.15;94.64
59043;BME280;44826;51.596;5.624;2023-08-06T00:33:40;100263.06;;;15.14;94.98
59043;BME280;44826;51.596;5.624;2023-08-06T00:36:05;100264.81;;;15.13;94.92
59043;BME280;44826;51.596;5.624;2023-08-06T00:38:30;100261.38;;;15.13;94.70
59043;BME280;44826;51.596;5.624;2023-08-06T00:40:56;100263.13;;;15.12;94.69
59043;BME280;44826;51.596;5.624;2023-08-06T00:43:21;100259.69;;;15.12;94.68
59043;BME280;44826;51.596;5.624;2023-08-06T00:45:46;100263.13;;;15.12;94.59
59043;BME280;44826;51.596;5.624;2023-08-06T00:48:11;100262.41;;;15.10;94.88
59043;BME280;44826;51.596;5.624;2023-08-06T00:50:37;100262.31;;;15.12;95.11
59043;BME280;44826;51.596;5.624;2023-08-06T00:53:02;100254.34;;;15.13;95.08
59043;BME280;44826;51.596;5.624;2023-08-06T00:55:27;100252.66;;;15.12;95.11
59043;BME280;44826;51.596;5.624;2023-08-06T00:57:54;100260.53;;;15.12;94.94
59043;BME280;44826;51.596;5.624;2023-08-06T01:00:21;100261.38;;;15.13;95.09
59043;BME280;44826;51.596;5.624;2023-08-06T01:02:48;100266.63;;;15.13;95.11
59043;BME280;44826;51.596;5.624;2023-08-06T01:05:13;100257.91;;;15.12;94.85
59043;BME280;44826;51.596;5.624;2023-08-06T01:11:04;100259.69;;;15.12;94.81
59043;BME280;44826;51.596;5.624;2023-08-06T01:13:45;100260.72;;;15.09;94.99
59043;BME280;44826;51.596;5.624;2023-08-06T01:16:15;100255.47;;;15.09;95.25
59043;BME280;44826;51.596;5.624;2023-08-06T01:18:40;100258.91;;;15.10;95.18
59043;BME280;44826;51.596;5.624;2023-08-06T01:21:07;100259.84;;;15.09;95.27
59043;BME280;44826;51.596;5.624;2023-08-06T01:23:32;100259.94;;;15.07;95.41
59043;BME280;44826;51.596;5.624;2023-08-06T01:28:50;100257.38;;;15.06;95.35
59043;BME280;44826;51.596;5.624;2023-08-06T01:31:27;100251.38;;;15.03;95.35
59043;BME280;44826;51.596;5.624;2023-08-06T01:33:53;100255.69;;;15.05;95.55
59043;BME280;44826;51.596;5.624;2023-08-06T01:36:20;100247.84;;;15.05;95.81
59043;BME280;44826;51.596;5.624;2023-08-06T01:38:46;100256.63;;;15.03;96.16
59043;BME280;44826;51.596;5.624;2023-08-06T01:41:11;100253.94;;;15.05;96.09
59043;BME280;44826;51.596;5.624;2023-08-06T01:43:39;100253.94;;;15.05;96.32
59043;BME280;44826;51.596;5.624;2023-08-06T01:46:04;100247.84;;;15.05;96.43
59043;BME280;44826;51.596;5.624;2023-08-06T01:48:29;100253.06;;;15.05;96.51
59043;BME280;44826;51.596;5.624;2023-08-06T01:50:54;100250.56;;;15.03;96.58
59043;BME280;44826;51.596;5.624;2023-08-06T01:53:20;100253.16;;;15.03;96.35
59043;BME280;44826;51.596;5.624;2023-08-06T01:55:49;100254.97;;;15.02;96.64
59043;BME280;44826;51.596;5.624;2023-08-06T01:58:14;100247.16;;;15.01;96.63
59043;BME280;44826;51.596;5.624;2023-08-06T02:00:40;100247.16;;;15.01;96.63
59043;BME280;44826;51.596;5.624;2023-08-06T02:03:05;100248.94;;;15.00;96.72
59043;BME280;44826;51.596;5.624;2023-08-06T02:05:31;100250.72;;;15.00;96.52
59043;BME280;44826;51.596;5.624;2023-08-06T02:07:59;100250.72;;;15.00;96.54
59043;BME280;44826;51.596;5.624;2023-08-06T02:10:24;100248.19;;;14.98;96.33
59043;BME280;44826;51.596;5.624;2023-08-06T02:12:49;100249.88;;;14.99;96.39
59043;BME280;44826;51.596;5.624;2023-08-06T02:15:14;100250.72;;;15.00;96.56
59043;BME280;44826;51.596;5.624;2023-08-06T02:17:40;100249.88;;;14.99;96.37
59043;BME280;44826;51.596;5.624;2023-08-06T02:20:05;100249.00;;;14.99;96.40
59043;BME280;44826;51.596;5.624;2023-08-06T02:22:31;100253.44;;;14.98;96.54
59043;BME280;44826;51.596;5.624;2023-08-06T02:24:56;100250.81;;;14.98;96.59
59043;BME280;44826;51.596;5.624;2023-08-06T02:27:21;100250.72;;;15.00;96.93
59043;BME280;44826;51.596;5.624;2023-08-06T02:29:47;100244.63;;;14.99;96.61
59043;BME280;44826;51.596;5.624;2023-08-06T02:32:12;100252.50;;;14.99;97.06
59043;BME280;44826;51.596;5.624;2023-08-06T02:34:37;100248.19;;;14.98;96.80
59043;BME280;44826;51.596;5.624;2023-08-06T02:37:03;100236.78;;;14.99;96.79
59043;BME280;44826;51.596;5.624;2023-08-06T02:39:28;100236.78;;;14.99;97.12
59043;BME280;44826;51.596;5.624;2023-08-06T02:41:53;100235.00;;;15.00;96.89
59043;BME280;44826;51.596;5.624;2023-08-06T02:44:19;100239.41;;;14.99;96.90
59043;BME280;44826;51.596;5.624;2023-08-06T02:46:44;100234.94;;;15.01;97.20
59043;BME280;44826;51.596;5.624;2023-08-06T02:49:10;100241.09;;;15.00;97.29
59043;BME280;44826;51.596;5.624;2023-08-06T02:51:35;100237.53;;;15.01;96.99
59043;BME280;44826;51.596;5.624;2023-08-06T02:54:03;100236.69;;;15.01;97.28
59043;BME280;44826;51.596;5.624;2023-08-06T02:56:28;100238.47;;;15.00;97.08
59043;BME280;44826;51.596;5.624;2023-08-06T02:58:53;100241.09;;;15.00;97.14
59043;BME280;44826;51.596;5.624;2023-08-06T03:01:18;100235.00;;;15.00;97.45
59043;BME280;44826;51.596;5.624;2023-08-06T03:03:44;100230.63;;;15.00;97.02
59043;BME280;44826;51.596;5.624;2023-08-06T03:06:09;100239.41;;;14.99;96.95
59043;BME280;44826;51.596;5.624;2023-08-06T03:08:34;100224.50;;;15.00;97.24
59043;BME280;44826;51.596;5.624;2023-08-06T03:11:00;100228.91;;;14.99;97.17
59043;BME280;44826;51.596;5.624;2023-08-06T03:13:25;100234.16;;;14.99;97.42
59043;BME280;44826;51.596;5.624;2023-08-06T03:15:58;100239.41;;;14.99;97.31
59043;BME280;44826;51.596;5.624;2023-08-06T03:18:23;100231.59;;;14.98;97.45
59043;BME280;44826;51.596;5.624;2023-08-06T03:20:49;100232.47;;;14.98;97.11
59043;BME280;44826;51.596;5.624;2023-08-06T03:23:14;100224.63;;;14.98;97.63
59043;BME280;44826;51.596;5.624;2023-08-06T03:25:39;100229.75;;;15.00;97.82
59043;BME280;44826;51.596;5.624;2023-08-06T03:28:05;100225.28;;;15.02;97.57
59043;BME280;44826;51.596;5.624;2023-08-06T03:30:30;100226.97;;;15.03;97.68
59043;BME280;44826;51.596;5.624;2023-08-06T03:32:55;100230.41;;;15.03;97.57
59043;BME280;44826;51.596;5.624;2023-08-06T03:35:21;100226.16;;;15.02;97.44
59043;BME280;44826;51.596;5.624;2023-08-06T03:37:46;100228.75;;;15.02;97.79
59043;BME280;44826;51.596;5.624;2023-08-06T03:40:12;100234.06;;;15.01;97.51
59043;BME280;44826;51.596;5.624;2023-08-06T03:42:37;100226.31;;;14.99;97.62
59043;BME280;44826;51.596;5.624;2023-08-06T03:45:03;100231.59;;;14.98;97.59
59043;BME280;44826;51.596;5.624;2023-08-06T03:47:28;100232.53;;;14.97;97.74
59043;BME280;44826;51.596;5.624;2023-08-06T03:49:53;100235.25;;;14.95;97.61
59043;BME280;44826;51.596;5.624;2023-08-06T03:52:19;100236.19;;;14.94;97.83
59043;BME280;44826;51.596;5.624;2023-08-06T03:54:44;100234.47;;;14.93;97.82
59043;BME280;44826;51.596;5.624;2023-08-06T03:57:09;100231.09;;;14.91;98.25
59043;BME280;44826;51.596;5.624;2023-08-06T03:59:35;100238.19;;;14.89;98.75
59043;BME280;44826;51.596;5.624;2023-08-06T04:02:00;100235.50;;;14.91;98.78
59043;BME280;44826;51.596;5.624;2023-08-06T04:04:25;100229.41;;;14.90;99.01
59043;BME280;44826;51.596;5.624;2023-08-06T04:06:51;100230.25;;;14.91;99.24
59043;BME280;44826;51.596;5.624;2023-08-06T04:09:16;100225.84;;;14.91;98.83
59043;BME280;44826;51.596;5.624;2023-08-06T04:11:41;100226.78;;;14.90;98.92
59043;BME280;44826;51.596;5.624;2023-08-06T04:14:07;100236.34;;;14.91;98.51
59043;BME280;44826;51.596;5.624;2023-08-06T04:16:32;100228.56;;;14.90;98.53
59043;BME280;44826;51.596;5.624;2023-08-06T04:18:57;100239.88;;;14.90;98.92
59043;BME280;44826;51.596;5.624;2023-08-06T04:21:23;100239.88;;;14.90;98.95
59043;BME280;44826;51.596;5.624;2023-08-06T04:23:48;100239.81;;;14.92;98.92
59043;BME280;44826;51.596;5.624;2023-08-06T04:26:14;100249.38;;;14.93;99.17
59043;BME280;44826;51.596;5.624;2023-08-06T04:28:39;100249.28;;;14.94;99.14
59043;BME280;44826;51.596;5.624;2023-08-06T04:31:04;100252.72;;;14.95;98.89
59043;BME280;44826;51.596;5.624;2023-08-06T04:33:29;100256.28;;;14.94;99.09
59043;BME280;44826;51.596;5.624;2023-08-06T04:35:55;100254.50;;;14.94;99.16
59043;BME280;44826;51.596;5.624;2023-08-06T04:38:24;100251.06;;;14.94;99.16
59043;BME280;44826;51.596;5.624;2023-08-06T04:40:50;100256.28;;;14.94;98.97
59043;BME280;44826;51.596;5.624;2023-08-06T04:43:15;100250.19;;;14.93;98.70
59043;BME280;44826;51.596;5.624;2023-08-06T04:45:47;100249.38;;;14.93;98.80
59043;BME280;44826;51.596;5.624;2023-08-06T04:48:13;100250.19;;;14.93;98.99
59043;BME280;44826;51.596;5.624;2023-08-06T04:50:38;100250.19;;;14.93;99.26
59043;BME280;44826;51.596;5.624;2023-08-06T04:53:03;100258.81;;;14.95;99.04
59043;BME280;44826;51.596;5.624;2023-08-06T04:55:29;100267.59;;;14.94;98.98
59043;BME280;44826;51.596;5.624;2023-08-06T04:57:54;100265.91;;;14.93;99.73
59043;BME280;44826;51.596;5.624;2023-08-06T05:00:19;100269.47;;;14.92;100.00
59043;BME280;44826;51.596;5.624;2023-08-06T05:02:44;100258.16;;;14.92;100.00
59043;BME280;44826;51.596;5.624;2023-08-06T05:05:10;100263.28;;;14.93;100.00
59043;BME280;44826;51.596;5.624;2023-08-06T05:07:35;100273.66;;;14.95;100.00
59043;BME280;44826;51.596;5.624;2023-08-06T05:10:00;100271.75;;;14.98;100.00
59043;BME280;44826;51.596;5.624;2023-08-06T05:12:26;100272.53;;;15.00;100.00
59043;BME280;44826;51.596;5.624;2023-08-06T05:14:51;100279.28;;;15.05;100.00
59043;BME280;44826;51.596;5.624;2023-08-06T05:17:16;100276.59;;;15.06;100.00
59043;BME280;44826;51.596;5.624;2023-08-06T05:19:42;100279.13;;;15.08;100.00
59043;BME280;44826;51.596;5.624;2023-08-06T05:22:07;100281.66;;;15.09;100.00
59043;BME280;44826;51.596;5.624;2023-08-06T05:24:32;100284.03;;;15.14;100.00
59043;BME280;44826;51.596;5.624;2023-08-06T05:26:57;100282.09;;;15.17;100.00
59043;BME280;44826;51.596;5.624;2023-08-06T05:29:23;100290.63;;;15.21;100.00
59043;BME280;44826;51.596;5.624;2023-08-06T05:31:48;100285.22;;;15.24;100.00
59043;BME280;44826;51.596;5.624;2023-08-06T05:34:13;100297.22;;;15.28;100.00
59043;BME280;44826;51.596;5.624;2023-08-06T05:36:38;100297.84;;;15.33;100.00
59043;BME280;44826;51.596;5.624;2023-08-06T05:39:04;100300.09;;;15.40;100.00
59043;BME280;44826;51.596;5.624;2023-08-06T05:41:29;100300.59;;;15.46;99.71
59043;BME280;44826;51.596;5.624;2023-08-06T05:43:54;100308.25;;;15.51;99.67
59043;BME280;44826;51.596;5.624;2023-08-06T05:46:19;100302.63;;;15.57;99.22
59043;BME280;44826;51.596;5.624;2023-08-06T05:48:45;100303.34;;;15.61;99.24
59043;BME280;44826;51.596;5.624;2023-08-06T05:51:10;100308.38;;;15.64;98.89
59043;BME280;44826;51.596;5.624;2023-08-06T05:53:37;100310.06;;;15.65;98.21
59043;BME280;44826;51.596;5.624;2023-08-06T05:56:03;100317.94;;;15.65;98.12
59043;BME280;44826;51.596;5.624;2023-08-06T05:58:28;100322.34;;;15.65;97.16
59043;BME280;44826;51.596;5.624;2023-08-06T06:00:55;100322.41;;;15.63;96.98
59043;BME280;44826;51.596;5.624;2023-08-06T06:03:20;100333.78;;;15.63;97.19
59043;BME280;44826;51.596;5.624;2023-08-06T06:05:46;100328.53;;;15.63;96.08
59043;BME280;44826;51.596;5.624;2023-08-06T06:08:11;100332.84;;;15.65;96.35
59043;BME280;44826;51.596;5.624;2023-08-06T06:10:36;100338.84;;;15.67;97.05
59043;BME280;44826;51.596;5.624;2023-08-06T06:13:02;100343.94;;;15.70;96.57
59043;BME280;44826;51.596;5.624;2023-08-06T06:15:27;100349.19;;;15.70;95.15
59043;BME280;44826;51.596;5.624;2023-08-06T06:17:52;100345.63;;;15.71;96.67
59043;BME280;44826;51.596;5.624;2023-08-06T06:20:17;100351.38;;;15.77;97.48
59043;BME280;44826;51.596;5.624;2023-08-06T06:22:43;100348.50;;;15.82;97.60
59043;BME280;44826;51.596;5.624;2023-08-06T06:25:08;100353.44;;;15.88;97.66
59043;BME280;44826;51.596;5.624;2023-08-06T06:27:34;100356.78;;;15.90;97.54
59043;BME280;44826;51.596;5.624;2023-08-06T06:30:00;100359.69;;;15.86;97.52
59043;BME280;44826;51.596;5.624;2023-08-06T06:32:25;100368.72;;;15.80;96.88
59043;BME280;44826;51.596;5.624;2023-08-06T06:34:50;100373.53;;;15.72;96.17
59043;BME280;44826;51.596;5.624;2023-08-06T06:37:15;100375.56;;;15.67;96.91
59043;BME280;44826;51.596;5.624;2023-08-06T06:39:41;100373.88;;;15.66;96.17
59043;BME280;44826;51.596;5.624;2023-08-06T06:42:06;100382.66;;;15.65;96.14
59043;BME280;44826;51.596;5.624;2023-08-06T06:44:31;100376.75;;;15.61;96.66
59043;BME280;44826;51.596;5.624;2023-08-06T06:46:57;100382.94;;;15.60;96.32
59043;BME280;44826;51.596;5.624;2023-08-06T06:49:22;100378.44;;;15.62;97.21
59043;BME280;44826;51.596;5.624;2023-08-06T06:51:47;100380.97;;;15.63;97.25
59043;BME280;44826;51.596;5.624;2023-08-06T06:54:13;100382.66;;;15.65;96.67
59043;BME280;44826;51.596;5.624;2023-08-06T06:56:38;100381.81;;;15.64;96.66
59043;BME280;44826;51.596;5.624;2023-08-06T06:59:03;100386.88;;;15.67;97.30
59043;BME280;44826;51.596;5.624;2023-08-06T07:01:28;100391.03;;;15.71;97.81
59043;BME280;44826;51.596;5.624;2023-08-06T07:03:54;100392.75;;;15.72;97.00
59043;BME280;44826;51.596;5.624;2023-08-06T07:06:19;100399.84;;;15.70;96.82
59043;BME280;44826;51.596;5.624;2023-08-06T07:08:45;100401.63;;;15.70;96.75
59043;BME280;44826;51.596;5.624;2023-08-06T07:11:10;100394.50;;;15.72;96.58
59043;BME280;44826;51.596;5.624;2023-08-06T07:13:35;100393.41;;;15.76;97.12
59043;BME280;44826;51.596;5.624;2023-08-06T07:16:01;100399.25;;;15.81;96.34
59043;BME280;44826;51.596;5.624;2023-08-06T07:18:26;100400.84;;;15.84;96.00
59043;BME280;44826;51.596;5.624;2023-08-06T07:20:53;100403.47;;;15.84;96.71
59043;BME280;44826;51.596;5.624;2023-08-06T07:23:23;100408.69;;;15.85;95.31
59043;BME280;44826;51.596;5.624;2023-08-06T07:25:49;100406.19;;;15.82;95.52
59043;BME280;44826;51.596;5.624;2023-08-06T07:28:15;100407.97;;;15.82;95.65
59043;BME280;44826;51.596;5.624;2023-08-06T07:30:40;100415.81;;;15.82;95.71
59043;BME280;44826;51.596;5.624;2023-08-06T07:33:06;100418.25;;;15.86;96.13
59043;BME280;44826;51.596;5.624;2023-08-06T07:35:32;100426.88;;;15.88;94.59
59043;BME280;44826;51.596;5.624;2023-08-06T07:37:57;100430.44;;;15.87;95.90
59043;BME280;44826;51.596;5.624;2023-08-06T07:40:22;100432.03;;;15.90;95.77
59043;BME280;44826;51.596;5.624;2023-08-06T07:42:48;100428.31;;;15.94;95.98
59043;BME280;44826;51.596;5.624;2023-08-06T07:45:20;100427.13;;;16.00;96.34
59043;BME280;44826;51.596;5.624;2023-08-06T07:47:46;100429.41;;;16.06;95.15
59043;BME280;44826;51.596;5.624;2023-08-06T07:50:12;100424.91;;;16.08;95.39
59043;BME280;44826;51.596;5.624;2023-08-06T07:52:38;100427.47;;;16.10;95.24
59043;BME280;44826;51.596;5.624;2023-08-06T07:55:03;100432.56;;;16.13;93.80
59043;BME280;44826;51.596;5.624;2023-08-06T07:57:36;100437.88;;;16.11;94.32
59043;BME280;44826;51.596;5.624;2023-08-06T08:00:05;100431.09;;;16.07;95.31
59043;BME280;44826;51.596;5.624;2023-08-06T08:02:30;100437.28;;;16.06;94.94
59043;BME280;44826;51.596;5.624;2023-08-06T08:04:55;100437.53;;;16.01;94.96
59043;BME280;44826;51.596;5.624;2023-08-06T08:07:21;100445.97;;;15.90;93.49
59043;BME280;44826;51.596;5.624;2023-08-06T08:09:46;100443.66;;;15.68;93.14
59043;BME280;44826;51.596;5.624;2023-08-06T08:12:13;100447.59;;;15.43;93.84
59043;BME280;44826;51.596;5.624;2023-08-06T08:14:38;100446.59;;;15.28;94.67
59043;BME280;44826;51.596;5.624;2023-08-06T08:17:04;100448.03;;;15.18;94.82
59043;BME280;44826;51.596;5.624;2023-08-06T08:19:31;100462.66;;;15.05;94.71
59043;BME280;44826;51.596;5.624;2023-08-06T08:21:56;100472.53;;;14.82;96.74
59043;BME280;44826;51.596;5.624;2023-08-06T08:24:22;100483.59;;;14.69;95.90
59043;BME280;44826;51.596;5.624;2023-08-06T08:26:51;100477.22;;;14.56;97.00
59043;BME280;44826;51.596;5.624;2023-08-06T08:29:17;100469.34;;;14.38;98.16
59043;BME280;44826;51.596;5.624;2023-08-06T08:31:42;100491.56;;;14.30;98.14
59043;BME280;44826;51.596;5.624;2023-08-06T08:34:08;100488.50;;;14.20;99.54
59043;BME280;44826;51.596;5.624;2023-08-06T08:36:33;100500.97;;;14.15;99.47
59043;BME280;44826;51.596;5.624;2023-08-06T08:38:59;100508.09;;;14.11;99.31
59043;BME280;44826;51.596;5.624;2023-08-06T08:41:24;100496.03;;;14.08;99.93
59043;BME280;44826;51.596;5.624;2023-08-06T08:43:50;100503.22;;;14.03;100.00
59043;BME280;44826;51.596;5.624;2023-08-06T08:46:19;100507.66;;;14.01;100.00
59043;BME280;44826;51.596;5.624;2023-08-06T08:48:45;100509.53;;;13.99;100.00
59043;BME280;44826;51.596;5.624;2023-08-06T08:51:11;100514.91;;;13.96;100.00
59043;BME280;44826;51.596;5.624;2023-08-06T08:53:38;100508.94;;;13.92;100.00
59043;BME280;44826;51.596;5.624;2023-08-06T08:56:05;100525.38;;;13.96;100.00
59043;BME280;44826;51.596;5.624;2023-08-06T08:58:31;100517.88;;;13.88;100.00
59043;BME280;44826;51.596;5.624;2023-08-06T09:00:56;100522.22;;;13.88;100.00
59043;BME280;44826;51.596;5.624;2023-08-06T09:03:23;100522.53;;;13.81;100.00
59043;BME280;44826;51.596;5.624;2023-08-06T09:05:52;100522.53;;;13.81;100.00
59043;BME280;44826;51.596;5.624;2023-08-06T09:08:21;100517.34;;;13.80;100.00
59043;BME280;44826;51.596;5.624;2023-08-06T09:10:49;100526.88;;;13.81;100.00
59043;BME280;44826;51.596;5.624;2023-08-06T09:13:15;100538.03;;;13.85;100.00
59043;BME280;44826;51.596;5.624;2023-08-06T09:15:41;100529.44;;;13.83;100.00
59043;BME280;44826;51.596;5.624;2023-08-06T09:18:12;100538.97;;;13.84;100.00
59043;BME280;44826;51.596;5.624;2023-08-06T09:20:38;100544.13;;;13.85;100.00
59043;BME280;44826;51.596;5.624;2023-08-06T09:23:10;100543.22;;;13.86;100.00
59043;BME280;44826;51.596;5.624;2023-08-06T09:25:38;100555.31;;;13.89;100.00
59043;BME280;44826;51.596;5.624;2023-08-06T09:28:05;100564.19;;;13.85;100.00
59043;BME280;44826;51.596;5.624;2023-08-06T09:30:32;100559.03;;;13.83;100.00
59043;BME280;44826;51.596;5.624;2023-08-06T09:32:58;100555.50;;;13.84;100.00
59043;BME280;44826;51.596;5.624;2023-08-06T09:35:24;100558.22;;;13.83;100.00
59043;BME280;44826;51.596;5.624;2023-08-06T09:37:49;100573.69;;;13.87;100.00
59043;BME280;44826;51.596;5.624;2023-08-06T09:40:25;100569.28;;;13.88;100.00
59043;BME280;44826;51.596;5.624;2023-08-06T09:42:51;100570.22;;;13.87;100.00
59043;BME280;44826;51.596;5.624;2023-08-06T09:45:16;100563.16;;;13.89;100.00
59043;BME280;44826;51.596;5.624;2023-08-06T09:47:41;100570.88;;;13.92;100.00
59043;BME280;44826;51.596;5.624;2023-08-06T09:50:15;100574.41;;;13.91;100.00
59043;BME280;44826;51.596;5.624;2023-08-06T09:52:42;100569.09;;;13.92;100.00
59043;BME280;44826;51.596;5.624;2023-08-06T09:55:13;100573.34;;;13.95;100.00
59043;BME280;44826;51.596;5.624;2023-08-06T09:57:42;100576.81;;;13.95;100.00
59043;BME280;44826;51.596;5.624;2023-08-06T10:00:11;100581.91;;;13.99;100.00
59043;BME280;44826;51.596;5.624;2023-08-06T10:02:38;100588.84;;;14.00;100.00
59043;BME280;44826;51.596;5.624;2023-08-06T10:05:05;100586.28;;;13.98;100.00
59043;BME280;44826;51.596;5.624;2023-08-06T10:07:30;100587.91;;;14.01;100.00
59043;BME280;44826;51.596;5.624;2023-08-06T10:09:56;100584.31;;;14.03;100.00
59043;BME280;44826;51.596;5.624;2023-08-06T10:12:22;100587.72;;;14.05;100.00
59043;BME280;44826;51.596;5.624;2023-08-06T10:14:51;100588.63;;;14.04;100.00
59043;BME280;44826;51.596;5.624;2023-08-06T10:17:19;100594.63;;;14.06;100.00
59043;BME280;44826;51.596;5.624;2023-08-06T10:19:45;100592.03;;;14.06;100.00
59043;BME280;44826;51.596;5.624;2023-08-06T10:22:12;100598.03;;;14.08;100.00
59043;BME280;44826;51.596;5.624;2023-08-06T10:24:58;100598.03;;;14.08;100.00
59043;BME280;44826;51.596;5.624;2023-08-06T10:29:55;100603.00;;;14.15;100.00
59043;BME280;44826;51.596;5.624;2023-08-06T10:32:20;100591.63;;;14.16;100.00
59043;BME280;44826;51.596;5.624;2023-08-06T10:34:59;100597.78;;;14.15;100.00
59043;BME280;44826;51.596;5.624;2023-08-06T10:37:37;100600.31;;;14.16;100.00
59043;BME280;44826;51.596;5.624;2023-08-06T10:40:03;100604.53;;;14.19;100.00
59043;BME280;44826;51.596;5.624;2023-08-06T10:42:31;100607.94;;;14.21;100.00
59043;BME280;44826;51.596;5.624;2023-08-06T10:45:16;100605.28;;;14.22;100.00
59043;BME280;44826;51.596;5.624;2023-08-06T10:47:42;100610.44;;;14.24;100.00
59043;BME280;44826;51.596;5.624;2023-08-06T10:50:13;100610.31;;;14.27;100.00
59043;BME280;44826;51.596;5.624;2023-08-06T10:52:41;100609.44;;;14.26;100.00
59043;BME280;44826;51.596;5.624;2023-08-06T10:55:07;100612.91;;;14.27;100.00
59043;BME280;44826;51.596;5.624;2023-08-06T10:57:33;100617.22;;;14.28;100.00
59043;BME280;44826;51.596;5.624;2023-08-06T10:59:59;100617.16;;;14.30;100.00
59043;BME280;44826;51.596;5.624;2023-08-06T11:02:25;100618.81;;;14.32;100.00
59043;BME280;44826;51.596;5.624;2023-08-06T11:04:50;100620.50;;;14.33;100.00
59043;BME280;44826;51.596;5.624;2023-08-06T11:07:16;100623.75;;;14.38;100.00
59043;BME280;44826;51.596;5.624;2023-08-06T11:09:42;100629.88;;;14.37;100.00
59043;BME280;44826;51.596;5.624;2023-08-06T11:12:10;100635.06;;;14.39;100.00
59043;BME280;44826;51.596;5.624;2023-08-06T11:14:35;100628.06;;;14.39;100.00
59043;BME280;44826;51.596;5.624;2023-08-06T11:17:01;100627.28;;;14.37;100.00
59043;BME280;44826;51.596;5.624;2023-08-06T11:19:26;100636.81;;;14.38;100.00
59043;BME280;44826;51.596;5.624;2023-08-06T11:21:51;100635.13;;;14.37;100.00
59043;BME280;44826;51.596;5.624;2023-08-06T11:24:17;100642.06;;;14.38;100.00
59043;BME280;44826;51.596;5.624;2023-08-06T11:26:42;100648.06;;;14.40;100.00
59043;BME280;44826;51.596;5.624;2023-08-06T11:29:09;100642.72;;;14.44;100.00
59043;BME280;44826;51.596;5.624;2023-08-06T11:31:36;100641.94;;;14.41;100.00
59043;BME280;44826;51.596;5.624;2023-08-06T11:34:01;100643.75;;;14.39;100.00
59043;BME280;44826;51.596;5.624;2023-08-06T11:38:55;100652.47;;;14.40;100.00
59043;BME280;44826;51.596;5.624;2023-08-06T11:41:21;100647.28;;;14.38;100.00
59043;BME280;44826;51.596;5.624;2023-08-06T11:43:46;100653.41;;;14.39;100.00
59043;BME280;44826;51.596;5.624;2023-08-06T11:46:12;100649.91;;;14.38;100.00
59043;BME280;44826;51.596;5.624;2023-08-06T11:48:58;100662.03;;;14.41;100.00
59043;BME280;44826;51.596;5.624;2023-08-06T11:51:27;100660.25;;;14.41;100.00
59043;BME280;44826;51.596;5.624;2023-08-06T11:53:59;100665.44;;;14.43;100.00
59043;BME280;44826;51.596;5.624;2023-08-06T11:56:25;100661.81;;;14.46;100.00
59043;BME280;44826;51.596;5.624;2023-08-06T11:58:51;100666.97;;;14.47;100.00
59043;BME280;44826;51.596;5.624;2023-08-06T12:01:18;100667.63;;;14.52;100.00
59043;BME280;44826;51.596;5.624;2023-08-06T12:03:43;100676.03;;;14.59;100.00
59043;BME280;44826;51.596;5.624;2023-08-06T12:06:08;100673.50;;;14.57;100.00
59043;BME280;44826;51.596;5.624;2023-08-06T12:08:34;100673.44;;;14.59;100.00
59043;BME280;44826;51.596;5.624;2023-08-06T12:10:59;100682.97;;;14.60;100.00
59043;BME280;44826;51.596;5.624;2023-08-06T12:13:24;100676.81;;;14.61;100.00
59043;BME280;44826;51.596;5.624;2023-08-06T12:15:49;100682.84;;;14.63;100.00
59043;BME280;44826;51.596;5.624;2023-08-06T12:18:17;100680.16;;;14.65;100.00
59043;BME280;44826;51.596;5.624;2023-08-06T12:20:43;100686.97;;;14.69;100.00
59043;BME280;44826;51.596;5.624;2023-08-06T12:23:08;100692.78;;;14.76;100.00
59043;BME280;44826;51.596;5.624;2023-08-06T12:25:34;100692.53;;;14.82;100.00
59043;BME280;44826;51.596;5.624;2023-08-06T12:28:00;100700.03;;;14.90;100.00
59043;BME280;44826;51.596;5.624;2023-08-06T12:30:25;100697.19;;;14.94;100.00
59043;BME280;44826;51.596;5.624;2023-08-06T12:32:50;100703.19;;;14.96;100.00
59043;BME280;44826;51.596;5.624;2023-08-06T12:35:16;100698.59;;;15.01;100.00
59043;BME280;44826;51.596;5.624;2023-08-06T12:37:42;100702.75;;;15.06;100.00
59043;BME280;44826;51.596;5.624;2023-08-06T12:40:09;100710.34;;;15.12;100.00
59043;BME280;44826;51.596;5.624;2023-08-06T12:42:34;100706.81;;;15.13;100.00
59043;BME280;44826;51.596;5.624;2023-08-06T12:44:59;100704.03;;;15.16;100.00
59043;BME280;44826;51.596;5.624;2023-08-06T12:47:25;100712.75;;;15.16;100.00
59043;BME280;44826;51.596;5.624;2023-08-06T12:49:50;100718.84;;;15.17;100.00
59043;BME280;44826;51.596;5.624;2023-08-06T12:52:15;100713.59;;;15.17;100.00